Time;durP1;ratioP1;P1;durP2;ratioP2;P2;SDS_P1;SDS_P2;PMS_P1;PMS_P2;Temp;Humidity;BMP_temperature;BMP_pressure;BME280_temperature;BME280_humidity;BME280_pressure;Samples;Min_cycle;Max_cycle;Signal;HPM_P1;HPM_P2
2021/12/31 00:00:29;;;;;;;11.55;3.28;;;13.40;99.90;;;;;;5039718;28;20075;-72
2021/12/31 00:02:55;;;;;;;11.35;2.97;;;13.40;99.90;;;;;;5039375;28;20037;-73
2021/12/31 00:05:20;;;;;;;11.30;3.67;;;13.40;99.90;;;;;;5039958;28;20050;-73
2021/12/31 00:07:46;;;;;;;11.13;3.90;;;13.40;99.90;;;;;;5040594;28;20086;-73
2021/12/31 00:10:12;;;;;;;11.88;4.05;;;13.40;99.90;;;;;;5038249;28;20030;-75
2021/12/31 00:12:40;;;;;;;11.77;4.45;;;13.40;99.90;;;;;;5038093;28;20025;-74
2021/12/31 00:15:06;;;;;;;15.35;4.50;;;13.40;99.90;;;;;;5037455;28;20547;-74
2021/12/31 00:17:32;;;;;;;14.57;4.15;;;13.50;99.90;;;;;;5038771;28;20030;-74
2021/12/31 00:20:19;;;;;;;12.52;4.13;;;13.40;99.90;;;;;;5039039;28;20026;-75
2021/12/31 00:25:23;;;;;;;10.57;4.53;;;13.50;99.90;;;;;;5037997;28;20513;-73
2021/12/31 00:27:49;;;;;;;15.27;4.85;;;13.50;99.90;;;;;;5038753;28;20105;-73
2021/12/31 00:30:15;;;;;;;13.15;4.50;;;13.50;99.90;;;;;;5037373;28;20073;-73
2021/12/31 00:32:41;;;;;;;12.43;4.82;;;13.50;99.90;;;;;;5037189;28;20386;-73
2021/12/31 00:35:07;;;;;;;13.35;4.90;;;13.40;99.90;;;;;;5036499;28;20383;-74
2021/12/31 00:37:35;;;;;;;11.07;4.50;;;13.50;99.90;;;;;;5035611;28;20494;-74
2021/12/31 00:40:03;;;;;;;10.73;4.95;;;13.50;99.90;;;;;;5036412;28;20029;-74
2021/12/31 00:42:28;;;;;;;10.05;4.63;;;13.50;99.90;;;;;;5036528;28;20026;-73
2021/12/31 00:44:54;;;;;;;11.88;4.40;;;13.50;99.90;;;;;;5035495;28;20024;-74
2021/12/31 00:47:20;;;;;;;12.98;5.05;;;13.50;99.90;;;;;;5036170;28;20025;-74
2021/12/31 00:49:46;;;;;;;9.88;4.70;;;13.50;99.90;;;;;;5036263;28;20037;-74
2021/12/31 00:52:13;;;;;;;11.05;4.88;;;13.50;99.90;;;;;;5036928;28;20025;-74
2021/12/31 00:54:38;;;;;;;11.02;4.60;;;13.50;99.90;;;;;;5035706;28;20059;-73
2021/12/31 00:57:05;;;;;;;15.85;4.68;;;13.50;99.90;;;;;;5037027;28;20051;-73
2021/12/31 00:59:31;;;;;;;12.65;4.88;;;13.50;99.90;;;;;;5037164;28;20030;-73
2021/12/31 01:01:58;;;;;;;13.48;4.72;;;13.50;99.90;;;;;;5036464;28;20032;-72
2021/12/31 01:04:24;;;;;;;12.65;4.50;;;13.50;99.90;;;;;;5036401;28;20041;-73
2021/12/31 01:06:50;;;;;;;11.98;4.90;;;13.60;99.90;;;;;;5036322;28;20029;-73
2021/12/31 01:09:16;;;;;;;10.27;4.78;;;13.60;99.90;;;;;;5035710;28;20111;-75
2021/12/31 01:11:46;;;;;;;11.05;4.60;;;13.60;99.90;;;;;;5036024;28;20127;-72
2021/12/31 01:14:27;;;;;;;9.52;4.20;;;13.60;99.90;;;;;;5036275;28;20025;-73
2021/12/31 01:16:58;;;;;;;10.52;4.28;;;13.60;99.90;;;;;;5036244;28;20264;-73
2021/12/31 01:21:50;;;;;;;8.63;4.13;;;13.60;99.90;;;;;;5035906;28;20079;-74
2021/12/31 01:24:18;;;;;;;15.43;4.50;;;13.60;99.90;;;;;;5035666;28;20021;-72
2021/12/31 01:26:44;;;;;;;8.63;3.88;;;13.60;99.90;;;;;;5035636;28;20022;-73
2021/12/31 01:29:10;;;;;;;11.98;4.43;;;13.70;99.90;;;;;;5035443;28;20536;-74
2021/12/31 01:31:35;;;;;;;15.38;4.18;;;13.70;99.90;;;;;;5036630;28;20053;-74
2021/12/31 01:34:01;;;;;;;10.30;4.00;;;13.70;99.90;;;;;;5035381;27;20044;-73
2021/12/31 01:36:27;;;;;;;12.35;3.75;;;13.70;99.90;;;;;;5035262;28;20018;-72
2021/12/31 01:38:53;;;;;;;7.50;3.47;;;13.70;99.90;;;;;;5034913;28;20032;-73
2021/12/31 01:41:20;;;;;;;9.40;3.75;;;13.70;99.90;;;;;;5034605;28;20469;-73
2021/12/31 01:43:46;;;;;;;9.95;3.90;;;13.70;99.90;;;;;;5035127;28;20370;-72
2021/12/31 01:46:12;;;;;;;10.95;3.80;;;13.70;99.90;;;;;;5035400;28;20101;-73
2021/12/31 01:49:00;;;;;;;9.02;3.40;;;13.70;99.90;;;;;;5036064;28;20733;-72
2021/12/31 01:51:26;;;;;;;12.52;3.88;;;13.70;99.90;;;;;;5036181;28;20034;-73
2021/12/31 01:53:53;;;;;;;10.32;3.83;;;13.70;99.90;;;;;;5035390;28;20020;-73
2021/12/31 01:56:20;;;;;;;12.35;4.35;;;13.70;99.90;;;;;;5035748;28;20245;-73
2021/12/31 01:58:52;;;;;;;11.13;4.20;;;13.70;99.90;;;;;;5034647;28;20037;-73
2021/12/31 02:01:19;;;;;;;7.40;3.70;;;13.70;99.90;;;;;;5034584;28;20033;-73
2021/12/31 02:03:45;;;;;;;10.93;3.45;;;13.70;99.90;;;;;;5035031;28;20561;-73
2021/12/31 02:06:11;;;;;;;8.35;3.35;;;13.70;99.90;;;;;;5035146;28;20049;-72
2021/12/31 02:08:36;;;;;;;11.00;3.58;;;13.70;99.90;;;;;;5034890;28;20048;-72
2021/12/31 02:11:02;;;;;;;12.07;3.60;;;13.70;99.90;;;;;;5034646;28;20018;-74
2021/12/31 02:13:28;;;;;;;9.40;3.15;;;13.70;99.90;;;;;;5035004;28;20021;-73
2021/12/31 02:15:54;;;;;;;6.47;3.20;;;13.60;99.90;;;;;;5035267;28;20328;-73
2021/12/31 02:18:20;;;;;;;7.00;3.20;;;13.60;99.90;;;;;;5034668;28;20040;-74
2021/12/31 02:20:47;;;;;;;5.93;2.70;;;13.60;99.90;;;;;;5034018;28;20531;-74
2021/12/31 02:23:23;;;;;;;6.65;2.90;;;13.70;99.90;;;;;;5034457;28;20030;-74
2021/12/31 02:25:49;;;;;;;9.30;3.22;;;13.70;99.90;;;;;;5035805;28;20079;-74
2021/12/31 02:28:16;;;;;;;8.15;3.60;;;13.70;99.90;;;;;;5035211;28;20038;-73
2021/12/31 02:30:42;;;;;;;10.23;3.53;;;13.70;99.90;;;;;;5034823;28;20124;-74
2021/12/31 02:33:08;;;;;;;10.30;3.20;;;13.70;99.90;;;;;;5034149;28;20037;-73
2021/12/31 02:35:35;;;;;;;7.43;3.40;;;13.70;99.90;;;;;;5034060;28;20036;-73
2021/12/31 02:38:03;;;;;;;8.63;3.17;;;13.70;99.90;;;;;;5036438;28;20030;-73
2021/12/31 02:40:29;;;;;;;6.68;2.70;;;13.70;99.90;;;;;;5034031;28;20078;-73
2021/12/31 02:42:56;;;;;;;9.23;3.13;;;13.70;99.90;;;;;;5035395;28;20287;-74
2021/12/31 02:45:29;;;;;;;14.65;3.33;;;13.70;99.90;;;;;;5035175;28;20437;-74
2021/12/31 02:47:55;;;;;;;6.25;3.03;;;13.70;99.90;;;;;;5036594;28;20060;-74
2021/12/31 02:50:30;;;;;;;7.63;4.03;;;13.70;99.90;;;;;;5033721;28;20026;-74
2021/12/31 02:52:56;;;;;;;7.90;3.38;;;13.70;99.90;;;;;;5051216;28;20390;-73
2021/12/31 02:55:24;;;;;;;11.32;3.30;;;13.70;99.90;;;;;;5035471;28;20376;-73
2021/12/31 02:57:50;;;;;;;13.60;3.75;;;13.70;99.90;;;;;;5034333;28;20036;-72
2021/12/31 03:00:16;;;;;;;7.35;3.00;;;13.70;99.90;;;;;;5034633;28;20074;-72
2021/12/31 03:02:43;;;;;;;10.18;3.47;;;13.70;99.90;;;;;;5034781;28;20025;-73
2021/12/31 03:05:09;;;;;;;8.95;3.25;;;13.70;99.90;;;;;;5034559;28;20034;-74
2021/12/31 03:07:39;;;;;;;11.43;3.20;;;13.70;99.90;;;;;;5034543;28;20067;-74
2021/12/31 03:10:07;;;;;;;12.50;3.40;;;13.70;99.90;;;;;;5034617;28;20013;-74
2021/12/31 03:12:33;;;;;;;8.00;3.05;;;13.70;99.90;;;;;;5035138;28;20021;-73
2021/12/31 03:14:59;;;;;;;8.18;2.90;;;13.70;99.90;;;;;;5035274;28;20436;-74
2021/12/31 03:17:25;;;;;;;8.77;2.97;;;13.70;99.90;;;;;;5033643;28;20022;-72
2021/12/31 03:19:59;;;;;;;10.38;3.42;;;13.70;99.90;;;;;;5034623;28;20025;-73
2021/12/31 03:22:25;;;;;;;8.75;3.17;;;13.70;99.90;;;;;;5033773;28;20356;-73
2021/12/31 03:24:51;;;;;;;7.65;3.30;;;13.70;99.90;;;;;;5034168;28;20059;-73
2021/12/31 03:27:16;;;;;;;12.18;3.10;;;13.70;99.90;;;;;;5118875;28;20025;-73
2021/12/31 03:29:42;;;;;;;8.27;3.28;;;13.70;99.90;;;;;;5033466;28;20091;-73
2021/12/31 03:32:08;;;;;;;7.38;3.28;;;13.70;99.90;;;;;;5034347;28;20025;-73
2021/12/31 03:34:33;;;;;;;6.45;2.65;;;13.70;99.90;;;;;;5033633;28;20398;-73
2021/12/31 03:36:59;;;;;;;11.10;2.88;;;13.70;99.90;;;;;;5033533;28;20045;-73
2021/12/31 03:39:24;;;;;;;8.02;2.92;;;13.80;99.90;;;;;;5034096;28;20037;-73
2021/12/31 03:41:50;;;;;;;7.05;2.78;;;13.70;99.90;;;;;;5048550;28;20066;-73
2021/12/31 03:44:15;;;;;;;10.82;2.97;;;13.80;99.90;;;;;;5054048;28;20082;-73
2021/12/31 03:46:41;;;;;;;6.13;2.60;;;13.70;99.90;;;;;;5054314;28;20017;-73
2021/12/31 03:49:07;;;;;;;9.25;3.10;;;13.70;99.90;;;;;;5052806;28;20021;-73
2021/12/31 03:51:32;;;;;;;5.20;2.53;;;13.70;99.90;;;;;;5053307;28;20053;-73
2021/12/31 03:53:58;;;;;;;9.38;2.97;;;13.70;99.90;;;;;;5052904;28;20112;-73
2021/12/31 03:56:29;;;;;;;5.35;2.50;;;13.70;99.90;;;;;;5068628;28;20021;-73
2021/12/31 03:58:55;;;;;;;5.75;2.33;;;13.70;99.90;;;;;;5052718;28;20025;-74
2021/12/31 04:01:20;;;;;;;7.97;3.20;;;13.70;99.90;;;;;;5053092;28;20028;-72
2021/12/31 04:03:46;;;;;;;7.15;2.90;;;13.70;99.90;;;;;;5053207;28;20017;-73
2021/12/31 04:06:12;;;;;;;8.25;2.63;;;13.70;99.90;;;;;;5069260;28;20037;-73
2021/12/31 04:08:37;;;;;;;6.18;2.40;;;13.70;99.90;;;;;;5052788;28;20533;-73
2021/12/31 04:11:04;;;;;;;6.15;2.50;;;13.70;99.90;;;;;;5053541;28;20523;-73
2021/12/31 04:13:29;;;;;;;6.40;2.60;;;13.70;99.90;;;;;;5053152;28;20406;-73
2021/12/31 04:15:55;;;;;;;4.65;2.40;;;13.70;99.90;;;;;;5053278;28;20021;-72
2021/12/31 04:18:21;;;;;;;7.10;3.00;;;13.70;99.90;;;;;;5053373;28;20025;-73
2021/12/31 04:20:48;;;;;;;9.25;2.90;;;13.70;99.90;;;;;;5054009;28;20374;-74
2021/12/31 04:23:47;;;;;;;9.05;2.95;;;13.70;99.90;;;;;;5055918;28;20022;-73
2021/12/31 04:26:00;;;;;;;8.98;2.97;;;13.70;99.90;;;;;;5055842;28;20402;-73
2021/12/31 04:28:27;;;;;;;7.95;2.78;;;13.70;99.90;;;;;;5056355;28;20089;-73
2021/12/31 04:30:54;;;;;;;8.93;3.95;;;13.70;99.90;;;;;;5056772;28;20044;-74
2021/12/31 04:33:20;;;;;;;7.40;2.50;;;13.70;99.90;;;;;;5056042;28;20021;-73
2021/12/31 04:35:46;;;;;;;7.18;2.25;;;13.70;99.90;;;;;;5056682;28;20039;-73
2021/12/31 04:38:12;;;;;;;6.82;2.30;;;13.70;99.90;;;;;;5056258;28;20052;-73
2021/12/31 04:40:38;;;;;;;10.07;2.60;;;13.70;99.90;;;;;;5055920;28;20486;-73
2021/12/31 04:43:03;;;;;;;6.90;2.50;;;13.70;99.90;;;;;;5056577;28;20118;-73
2021/12/31 04:45:29;;;;;;;7.78;2.70;;;13.70;99.90;;;;;;5055690;28;20076;-73
2021/12/31 04:47:54;;;;;;;7.20;2.22;;;13.60;99.90;;;;;;5055295;28;20474;-74
2021/12/31 04:50:20;;;;;;;5.20;2.22;;;13.60;99.90;;;;;;5055151;28;20033;-75
2021/12/31 04:52:45;;;;;;;5.90;2.40;;;13.50;99.90;;;;;;5056126;28;20583;-74
2021/12/31 04:55:11;;;;;;;5.90;2.42;;;13.50;99.90;;;;;;5055710;27;20033;-73
2021/12/31 04:57:38;;;;;;;5.57;2.08;;;13.50;99.90;;;;;;5055541;28;20486;-74
2021/12/31 05:00:05;;;;;;;3.95;2.15;;;13.50;99.90;;;;;;5055771;28;20466;-74
2021/12/31 05:02:31;;;;;;;5.90;2.63;;;13.50;99.90;;;;;;5054587;28;20029;-73
2021/12/31 05:04:56;;;;;;;7.53;2.10;;;13.50;99.90;;;;;;5055718;28;20052;-74
2021/12/31 05:07:22;;;;;;;7.10;2.15;;;13.50;99.90;;;;;;5055693;28;20029;-73
2021/12/31 05:09:48;;;;;;;7.20;2.20;;;13.50;99.90;;;;;;5054386;28;20033;-74
2021/12/31 05:12:19;;;;;;;8.20;2.22;;;13.50;99.90;;;;;;5054774;28;20029;-73
2021/12/31 05:14:45;;;;;;;7.93;2.10;;;13.50;99.90;;;;;;5054683;28;20025;-73
2021/12/31 05:17:11;;;;;;;8.95;2.55;;;13.40;99.90;;;;;;5054535;28;20021;-73
2021/12/31 05:19:43;;;;;;;5.72;2.17;;;13.40;99.90;;;;;;5054918;28;20029;-73
2021/12/31 05:22:10;;;;;;;6.82;2.35;;;13.40;99.90;;;;;;5055360;28;20037;-74
2021/12/31 05:24:36;;;;;;;9.30;2.40;;;13.40;99.90;;;;;;5070155;28;20032;-74
2021/12/31 05:27:02;;;;;;;8.43;2.50;;;13.40;99.90;;;;;;5053693;28;20401;-74
2021/12/31 05:29:27;;;;;;;7.65;2.55;;;13.40;99.90;;;;;;5055336;28;20077;-73
2021/12/31 05:31:53;;;;;;;4.57;2.50;;;13.30;99.90;;;;;;5052572;28;20418;-72
2021/12/31 05:34:19;;;;;;;7.05;2.70;;;13.30;99.90;;;;;;5052744;28;20146;-73
2021/12/31 05:36:45;;;;;;;7.32;2.88;;;13.30;99.90;;;;;;5054840;28;20013;-73
2021/12/31 05:39:10;;;;;;;8.10;2.97;;;13.20;99.90;;;;;;5054326;28;20446;-73
2021/12/31 05:41:39;;;;;;;8.85;3.15;;;13.20;99.90;;;;;;5070699;28;20035;-73
2021/12/31 05:44:05;;;;;;;7.60;2.97;;;13.20;99.90;;;;;;5054426;28;20039;-73
2021/12/31 05:46:31;;;;;;;6.25;2.80;;;13.10;99.90;;;;;;5054739;28;20015;-72
2021/12/31 05:48:56;;;;;;;6.80;2.85;;;13.10;99.90;;;;;;5053841;28;20094;-73
2021/12/31 05:51:22;;;;;;;7.78;2.67;;;13.10;99.90;;;;;;5054623;28;20029;-74
2021/12/31 05:53:47;;;;;;;8.15;2.90;;;13.10;99.90;;;;;;5054439;28;20025;-74
2021/12/31 05:56:13;;;;;;;10.57;3.10;;;13.10;99.90;;;;;;5054236;28;20107;-74
2021/12/31 05:58:38;;;;;;;6.28;2.75;;;13.10;99.90;;;;;;5053713;28;20081;-73
2021/12/31 06:01:04;;;;;;;8.15;2.85;;;13.00;99.90;;;;;;5055556;28;20213;-74
2021/12/31 06:03:30;;;;;;;6.05;2.90;;;13.00;99.90;;;;;;5055397;28;20029;-75
2021/12/31 06:05:55;;;;;;;6.38;2.60;;;13.00;99.90;;;;;;5054713;28;20076;-75
2021/12/31 06:08:21;;;;;;;3.85;2.50;;;13.00;99.90;;;;;;5054090;28;20036;-73
2021/12/31 06:10:47;;;;;;;8.25;2.90;;;12.90;99.90;;;;;;5053824;28;20036;-73
2021/12/31 06:13:12;;;;;;;7.72;2.30;;;12.90;99.90;;;;;;5054062;28;20029;-73
2021/12/31 06:15:41;;;;;;;6.45;2.88;;;12.90;99.90;;;;;;5054134;28;20018;-74
2021/12/31 06:18:07;;;;;;;6.78;2.90;;;12.90;99.90;;;;;;5055292;28;20436;-74
2021/12/31 06:20:35;;;;;;;6.53;2.47;;;12.90;99.90;;;;;;5054012;28;20029;-73
2021/12/31 06:23:01;;;;;;;9.38;2.60;;;12.90;99.90;;;;;;5054959;28;20021;-73
2021/12/31 06:25:27;;;;;;;6.88;2.50;;;12.80;99.90;;;;;;5054746;28;20021;-73
2021/12/31 06:27:53;;;;;;;8.70;2.70;;;12.90;99.90;;;;;;5054866;28;20021;-73
2021/12/31 06:30:18;;;;;;;5.35;2.90;;;12.90;99.90;;;;;;5054528;28;20640;-74
2021/12/31 06:32:44;;;;;;;8.48;2.92;;;12.90;99.90;;;;;;5053825;28;20058;-73
2021/12/31 06:35:10;;;;;;;6.10;2.72;;;12.90;99.90;;;;;;5053844;28;20053;-73
2021/12/31 06:37:36;;;;;;;6.90;2.70;;;12.90;99.90;;;;;;5052820;28;20033;-73
2021/12/31 06:40:05;;;;;;;8.05;2.83;;;12.90;99.90;;;;;;5052901;28;20044;-73
2021/12/31 06:42:31;;;;;;;7.30;2.90;;;12.90;99.90;;;;;;5053931;27;20017;-73
2021/12/31 06:44:57;;;;;;;6.00;3.08;;;12.90;99.90;;;;;;5052298;28;20041;-73
2021/12/31 06:47:22;;;;;;;8.02;3.10;;;12.90;99.90;;;;;;5053464;28;20451;-73
2021/12/31 06:49:48;;;;;;;9.02;3.13;;;12.90;99.90;;;;;;5054051;28;20473;-74
2021/12/31 06:52:14;;;;;;;6.32;2.83;;;12.80;99.90;;;;;;5053988;28;20028;-74
2021/12/31 06:54:39;;;;;;;7.43;3.13;;;12.80;99.90;;;;;;5053732;28;20021;-73
2021/12/31 06:57:05;;;;;;;5.05;3.00;;;12.80;99.90;;;;;;5069187;28;20031;-73
2021/12/31 06:59:30;;;;;;;7.53;3.10;;;12.80;99.90;;;;;;5054019;28;20116;-73
2021/12/31 07:01:57;;;;;;;7.43;3.03;;;12.80;99.90;;;;;;5053423;28;20032;-73
2021/12/31 07:04:25;;;;;;;7.30;3.00;;;12.80;99.90;;;;;;5054274;28;20065;-74
2021/12/31 07:06:51;;;;;;;4.75;2.45;;;12.80;99.90;;;;;;5053982;28;20374;-73
2021/12/31 07:09:16;;;;;;;8.15;2.90;;;12.70;99.90;;;;;;5050954;28;20034;-73
2021/12/31 07:11:42;;;;;;;7.25;3.15;;;12.70;99.90;;;;;;5035072;28;20034;-74
2021/12/31 07:14:08;;;;;;;5.28;2.95;;;12.70;99.90;;;;;;5032835;28;20021;-74
2021/12/31 07:16:33;;;;;;;8.38;3.05;;;12.70;99.90;;;;;;5035889;28;20044;-74
2021/12/31 07:18:59;;;;;;;5.50;2.85;;;12.70;99.90;;;;;;5040446;28;20541;-74
2021/12/31 07:21:27;;;;;;;6.60;2.75;;;12.70;99.90;;;;;;5035365;28;20039;-73
2021/12/31 07:23:52;;;;;;;6.78;3.25;;;12.70;99.90;;;;;;5034273;28;20051;-72
2021/12/31 07:26:18;;;;;;;6.13;3.13;;;12.70;99.90;;;;;;5035164;28;20030;-74
2021/12/31 07:28:43;;;;;;;7.07;3.28;;;12.80;99.90;;;;;;5031776;28;20037;-74
2021/12/31 07:31:12;;;;;;;5.78;3.20;;;12.70;99.90;;;;;;5031749;28;20053;-73
2021/12/31 07:33:38;;;;;;;7.95;3.35;;;12.80;99.90;;;;;;5047163;28;20040;-75
2021/12/31 07:36:04;;;;;;;5.10;3.28;;;12.70;99.90;;;;;;5050244;28;20029;-72
2021/12/31 07:38:39;;;;;;;8.88;3.35;;;12.70;99.90;;;;;;5053386;28;20037;-73
2021/12/31 07:41:06;;;;;;;6.82;3.20;;;12.70;99.90;;;;;;5034626;28;20029;-73
2021/12/31 07:43:32;;;;;;;7.63;3.00;;;12.70;99.90;;;;;;5037281;28;20431;-75
2021/12/31 07:45:58;;;;;;;8.57;3.35;;;12.70;99.90;;;;;;5038740;28;20069;-73
2021/12/31 07:48:24;;;;;;;9.63;3.53;;;12.70;99.90;;;;;;5038187;28;20029;-74
2021/12/31 07:50:52;;;;;;;7.97;3.25;;;12.70;99.90;;;;;;5038837;28;20064;-73
2021/12/31 07:53:17;;;;;;;7.13;3.28;;;12.70;99.90;;;;;;5034704;28;20063;-75
2021/12/31 07:55:43;;;;;;;8.32;3.40;;;12.70;99.90;;;;;;5035462;28;20017;-73
2021/12/31 07:58:09;;;;;;;7.07;3.08;;;12.70;99.90;;;;;;5039817;28;20044;-73
2021/12/31 08:00:35;;;;;;;8.15;3.10;;;12.70;99.90;;;;;;5039020;28;20462;-75
2021/12/31 08:03:02;;;;;;;11.27;3.15;;;12.70;99.90;;;;;;5039533;28;20274;-74
2021/12/31 08:05:28;;;;;;;11.40;3.50;;;12.70;99.90;;;;;;5043300;28;20032;-74
2021/12/31 08:07:54;;;;;;;9.32;3.42;;;12.70;99.90;;;;;;5038549;28;20361;-74
2021/12/31 08:10:20;;;;;;;6.43;3.10;;;12.70;99.90;;;;;;5033416;28;20083;-74
2021/12/31 08:12:46;;;;;;;7.07;3.38;;;12.70;99.90;;;;;;5034464;28;20038;-73
2021/12/31 08:15:12;;;;;;;4.95;2.83;;;12.70;99.90;;;;;;5035744;28;20033;-74
2021/12/31 08:17:38;;;;;;;8.73;3.42;;;12.60;99.90;;;;;;5035554;28;20029;-74
2021/12/31 08:20:04;;;;;;;8.13;3.55;;;12.60;99.90;;;;;;5035646;28;20056;-75
2021/12/31 08:22:30;;;;;;;9.27;3.60;;;12.70;99.90;;;;;;5035248;28;20029;-75
2021/12/31 08:24:55;;;;;;;6.85;3.40;;;12.60;99.90;;;;;;5036435;28;20383;-73
2021/12/31 08:27:21;;;;;;;7.22;3.53;;;12.60;99.90;;;;;;5035662;28;20029;-74
2021/12/31 08:29:47;;;;;;;8.90;3.20;;;12.60;99.90;;;;;;5035456;28;20049;-74
2021/12/31 08:32:12;;;;;;;9.48;3.83;;;12.60;99.90;;;;;;5035929;28;20033;-73
2021/12/31 08:34:38;;;;;;;8.25;3.47;;;12.60;99.90;;;;;;5034709;28;20488;-73
2021/12/31 08:37:05;;;;;;;6.63;3.42;;;12.60;99.90;;;;;;5035402;28;20032;-74
2021/12/31 08:39:31;;;;;;;6.63;3.03;;;12.60;99.90;;;;;;5038522;27;20482;-74
2021/12/31 08:41:59;;;;;;;6.53;3.08;;;12.60;99.90;;;;;;5055487;27;20377;-74
2021/12/31 08:44:25;;;;;;;8.23;3.20;;;12.60;99.90;;;;;;5055082;28;20521;-75
2021/12/31 08:46:50;;;;;;;5.45;3.20;;;12.60;99.90;;;;;;5055037;27;20029;-74
2021/12/31 08:49:17;;;;;;;4.88;2.75;;;12.60;99.90;;;;;;5055436;27;20420;-74
2021/12/31 08:51:43;;;;;;;10.30;2.97;;;12.60;99.90;;;;;;5055232;28;20033;-74
2021/12/31 08:54:08;;;;;;;9.23;3.20;;;12.60;99.90;;;;;;5055144;28;20017;-74
2021/12/31 08:56:34;;;;;;;9.00;2.92;;;12.70;99.90;;;;;;5055724;27;20021;-74
2021/12/31 08:58:59;;;;;;;6.43;2.90;;;12.70;99.90;;;;;;5055320;27;20113;-73
2021/12/31 09:01:25;;;;;;;5.05;2.53;;;12.70;99.90;;;;;;5048947;27;20022;-73
2021/12/31 09:03:51;;;;;;;8.02;2.97;;;12.70;99.90;;;;;;5034879;28;20033;-75
2021/12/31 09:06:18;;;;;;;8.45;3.45;;;12.70;99.90;;;;;;5033887;28;20092;-74
2021/12/31 09:08:44;;;;;;;6.55;2.97;;;12.70;99.90;;;;;;5034875;28;20472;-75
2021/12/31 09:11:10;;;;;;;6.55;2.90;;;12.70;99.90;;;;;;5033668;28;20087;-73
2021/12/31 09:13:36;;;;;;;8.93;3.05;;;12.80;99.90;;;;;;5035319;28;20475;-74
2021/12/31 09:16:01;;;;;;;7.97;3.10;;;12.80;99.90;;;;;;5033390;28;20025;-74
2021/12/31 09:18:27;;;;;;;7.40;2.92;;;12.80;99.90;;;;;;5034698;28;20033;-73
2021/12/31 09:20:53;;;;;;;6.78;2.90;;;12.80;99.90;;;;;;5034355;28;20033;-74
2021/12/31 09:23:19;;;;;;;4.07;2.85;;;12.80;99.90;;;;;;5034768;28;20025;-74
2021/12/31 09:25:45;;;;;;;8.30;3.15;;;12.80;99.90;;;;;;5034709;28;20029;-74
2021/12/31 09:28:11;;;;;;;13.85;3.30;;;12.80;99.90;;;;;;5035713;28;20036;-74
2021/12/31 09:30:36;;;;;;;6.95;2.90;;;12.80;99.90;;;;;;5035128;28;20045;-73
2021/12/31 09:33:02;;;;;;;7.32;3.08;;;12.80;99.90;;;;;;5034111;28;20411;-73
2021/12/31 09:35:28;;;;;;;5.57;3.08;;;12.80;99.90;;;;;;5049958;27;20029;-73
2021/12/31 09:37:53;;;;;;;6.30;3.08;;;12.80;99.90;;;;;;5034934;28;20080;-74
2021/12/31 09:40:19;;;;;;;6.80;3.10;;;12.80;99.90;;;;;;5033749;28;20033;-74
2021/12/31 09:42:51;;;;;;;8.00;3.20;;;12.80;99.90;;;;;;5033874;28;20385;-74
2021/12/31 09:45:17;;;;;;;8.52;3.00;;;12.80;99.90;;;;;;5034738;28;20025;-74
2021/12/31 09:47:43;;;;;;;4.35;2.70;;;12.80;99.90;;;;;;5033414;28;20061;-74
2021/12/31 09:50:09;;;;;;;8.50;3.13;;;12.90;99.90;;;;;;5034217;28;20371;-73
2021/12/31 09:52:37;;;;;;;6.63;3.17;;;12.80;99.90;;;;;;5034651;28;20026;-73
2021/12/31 09:55:02;;;;;;;8.20;3.03;;;12.80;99.90;;;;;;5050578;27;20035;-73
2021/12/31 09:57:28;;;;;;;6.45;3.05;;;12.90;99.90;;;;;;5035055;28;20010;-74
2021/12/31 10:00:00;;;;;;;8.77;3.75;;;12.90;99.90;;;;;;5034538;28;20055;-73
2021/12/31 10:02:34;;;;;;;9.52;3.70;;;12.80;99.90;;;;;;5035135;28;20104;-74
2021/12/31 10:05:02;;;;;;;10.30;3.40;;;12.90;99.90;;;;;;5034740;28;20660;-73
2021/12/31 10:07:29;;;;;;;7.10;3.35;;;12.90;99.90;;;;;;5034165;28;20033;-73
2021/12/31 10:10:11;;;;;;;6.80;3.03;;;12.90;99.90;;;;;;5033704;28;20158;-73
2021/12/31 10:13:07;;;;;;;7.00;3.72;;;12.90;99.90;;;;;;5033906;27;20062;-73
2021/12/31 10:15:37;;;;;;;;;;;12.90;99.90;;;;;;5035043;28;20101;-74
2021/12/31 10:18:10;;;;;;;11.50;4.18;;;12.80;99.90;;;;;;5039005;28;19930;-74
2021/12/31 10:20:52;;;;;;;6.22;3.88;;;12.80;99.90;;;;;;5047629;28;20033;-73
2021/12/31 10:23:21;;;;;;;7.80;3.63;;;12.80;99.90;;;;;;5052824;28;20518;-75
2021/12/31 10:25:47;;;;;;;8.55;3.97;;;12.80;99.90;;;;;;5053268;27;20018;-74
2021/12/31 10:28:15;;;;;;;7.00;3.35;;;12.80;99.90;;;;;;5052581;27;20017;-74
2021/12/31 10:30:42;;;;;;;7.80;3.60;;;12.80;99.90;;;;;;5052659;28;20112;-74
2021/12/31 10:33:08;;;;;;;6.57;3.40;;;12.90;99.90;;;;;;5052594;28;20076;-75
2021/12/31 10:35:44;;;;;;;6.57;3.15;;;12.90;99.90;;;;;;5049304;27;20059;-75
2021/12/31 10:38:12;;;;;;;7.25;3.35;;;13.00;99.90;;;;;;5045055;28;20102;-75
2021/12/31 10:40:45;;;;;;;6.28;3.80;;;13.00;99.90;;;;;;5039445;28;20473;-75
2021/12/31 10:43:21;;;;;;;7.22;3.55;;;13.10;99.90;;;;;;5038488;28;20027;-75
2021/12/31 10:45:57;;;;;;;11.02;4.22;;;13.20;99.90;;;;;;5043656;28;20109;-74
2021/12/31 10:49:02;;;;;;;11.38;4.63;;;13.30;99.90;;;;;;5037935;28;20037;-73
2021/12/31 10:51:39;;;;;;;8.98;3.22;;;13.50;99.90;;;;;;5039943;28;20014;-75
2021/12/31 10:54:37;;;;;;;11.20;3.78;;;13.50;99.90;;;;;;5042020;28;20029;-75
2021/12/31 10:57:03;;;;;;;7.20;3.38;;;13.60;99.90;;;;;;5047843;28;20025;-75
2021/12/31 10:59:33;;;;;;;6.53;3.25;;;13.60;99.90;;;;;;5043751;28;20504;-74
2021/12/31 11:01:59;;;;;;;9.48;3.72;;;13.60;99.90;;;;;;5045253;28;20017;-75
2021/12/31 11:04:28;;;;;;;9.45;3.65;;;13.60;99.90;;;;;;5041514;28;20371;-74
2021/12/31 11:06:55;;;;;;;11.02;3.67;;;13.60;99.90;;;;;;5033669;28;20059;-74
2021/12/31 11:09:24;;;;;;;8.60;3.92;;;13.50;99.90;;;;;;5032812;28;20064;-75
2021/12/31 11:11:52;;;;;;;8.80;4.07;;;13.50;99.90;;;;;;5038054;28;20025;-73
2021/12/31 11:14:17;;;;;;;8.90;4.18;;;13.40;99.90;;;;;;5043138;28;20018;-75
2021/12/31 11:16:43;;;;;;;9.05;4.00;;;13.40;99.90;;;;;;5045992;28;20386;-73
2021/12/31 11:19:12;;;;;;;10.18;4.30;;;13.30;99.90;;;;;;5053151;27;20116;-78
2021/12/31 11:21:38;;;;;;;8.70;4.25;;;13.30;99.90;;;;;;5037604;28;20101;-74
2021/12/31 11:24:34;;;;;;;10.40;4.60;;;13.30;99.90;;;;;;5033587;28;20156;-73
2021/12/31 11:27:28;;;;;;;10.45;4.32;;;13.20;99.90;;;;;;5030048;27;20025;-73
2021/12/31 11:29:55;;;;;;;11.63;3.90;;;13.20;99.90;;;;;;5033104;28;20073;-74
2021/12/31 11:32:46;;;;;;;10.20;4.30;;;13.20;99.90;;;;;;5035099;28;20089;-74
2021/12/31 11:35:27;;;;;;;9.48;4.32;;;13.10;99.90;;;;;;5050387;27;20029;-73
2021/12/31 11:37:52;;;;;;;10.02;4.20;;;13.10;99.90;;;;;;5035722;27;20120;-73
2021/12/31 11:40:30;;;;;;;10.23;4.20;;;13.10;99.90;;;;;;5035643;28;20045;-73
2021/12/31 11:43:19;;;;;;;10.18;3.80;;;13.10;99.90;;;;;;5034980;28;20486;-73
2021/12/31 11:46:19;;;;;;;11.27;4.10;;;13.10;99.90;;;;;;5034857;28;20033;-73
2021/12/31 11:48:48;;;;;;;11.05;4.10;;;13.10;99.90;;;;;;5034285;28;20040;-73
2021/12/31 11:51:33;;;;;;;8.88;4.07;;;13.10;99.90;;;;;;5034652;28;20036;-73
2021/12/31 11:53:58;;;;;;;10.73;3.83;;;13.20;99.90;;;;;;5034069;28;20029;-75
2021/12/31 11:56:36;;;;;;;9.32;3.95;;;13.30;99.90;;;;;;5033700;28;20275;-73
2021/12/31 11:59:07;;;;;;;10.95;4.25;;;13.40;99.90;;;;;;5032285;28;20086;-74
2021/12/31 12:01:36;;;;;;;9.65;3.95;;;13.50;99.90;;;;;;5033726;27;20046;-74
2021/12/31 12:04:35;;;;;;;12.93;4.45;;;13.50;99.90;;;;;;5034206;28;20096;-74
2021/12/31 12:07:32;;;;;;;13.80;3.85;;;13.50;99.90;;;;;;5066875;28;20034;-74
2021/12/31 12:09:58;;;;;;;11.45;3.83;;;13.40;99.90;;;;;;5033116;28;20094;-74
2021/12/31 12:12:28;;;;;;;8.43;3.55;;;13.50;99.90;;;;;;5033570;28;20025;-75
2021/12/31 12:14:56;;;;;;;13.63;4.15;;;13.50;99.90;;;;;;5032340;28;20017;-74
2021/12/31 12:17:30;;;;;;;11.05;3.90;;;13.50;99.90;;;;;;5033101;28;20018;-75
2021/12/31 12:20:02;;;;;;;11.82;3.97;;;13.50;99.90;;;;;;5032390;28;20029;-75
2021/12/31 12:22:39;;;;;;;6.47;3.30;;;13.60;99.90;;;;;;5034095;27;20083;-75
2021/12/31 12:25:10;;;;;;;9.40;3.95;;;13.70;99.90;;;;;;5065019;27;20271;-76
2021/12/31 12:27:37;;;;;;;12.32;3.88;;;13.80;99.90;;;;;;5055675;27;20030;-74
2021/12/31 12:30:09;;;;;;;12.50;3.70;;;13.90;99.90;;;;;;5046836;27;20413;-74
2021/12/31 12:35:18;;;;;;;12.10;3.85;;;14.00;99.90;;;;;;5044060;27;20035;-75
2021/12/31 12:37:54;;;;;;;12.43;3.75;;;14.00;99.90;;;;;;5049960;28;20087;-75
2021/12/31 12:40:20;;;;;;;12.27;3.55;;;14.00;99.90;;;;;;5038118;28;20025;-74
2021/12/31 12:42:46;;;;;;;11.05;3.70;;;14.00;99.90;;;;;;5037003;28;20371;-74
2021/12/31 12:45:12;;;;;;;8.95;3.50;;;13.90;99.90;;;;;;5039983;28;20052;-74
2021/12/31 12:47:38;;;;;;;10.50;3.67;;;13.90;99.90;;;;;;5037068;28;20022;-74
2021/12/31 12:50:09;;;;;;;13.23;4.13;;;13.90;99.90;;;;;;5033863;28;20078;-73
2021/12/31 12:52:35;;;;;;;10.40;3.63;;;13.90;99.90;;;;;;5036753;28;20041;-74
2021/12/31 12:55:15;;;;;;;13.48;3.60;;;13.90;99.90;;;;;;5034272;28;20029;-74